Time;durP1;ratioP1;P1;durP2;ratioP2;P2;SDS_P1;SDS_P2;PMS_P1;PMS_P2;Temp;Humidity;BMP_temperature;BMP_pressure;BME280_temperature;BME280_humidity;BME280_pressure;Samples;Min_cycle;Max_cycle;Signal;HPM_P1;HPM_P2
2021/12/04 00:01:51;;;;;;;5.82;3.75;;;;;;;-1.86;77.59;98595.06;4499977;31;20114;-72
2021/12/04 00:04:45;;;;;;;5.37;3.28;;;;;;;-1.85;77.37;98588.19;4501098;31;20126;-73
2021/12/04 00:07:08;;;;;;;6.97;3.72;;;;;;;-1.75;77.23;98583.50;4500707;31;20092;-72
2021/12/04 00:09:36;;;;;;;8.38;3.53;;;;;;;-1.76;77.47;98574.94;4500853;31;20092;-73
2021/12/04 00:12:06;;;;;;;8.57;3.50;;;;;;;-1.85;77.69;98577.91;4500848;31;20118;-72
2021/12/04 00:14:35;;;;;;;6.95;3.33;;;;;;;-1.77;77.54;98567.31;4500853;31;20095;-72
2021/12/04 00:17:03;;;;;;;10.68;3.72;;;;;;;-1.70;77.29;98564.41;4500505;31;20529;-72
2021/12/04 00:19:31;;;;;;;11.18;3.70;;;;;;;-1.68;77.13;98562.63;4500676;31;20093;-72
2021/12/04 00:21:59;;;;;;;7.68;3.37;;;;;;;-1.80;77.52;98555.47;4500397;31;20111;-72
2021/12/04 00:24:27;;;;;;;12.35;3.95;;;;;;;-2.02;78.66;98558.91;4500625;31;20465;-72
2021/12/04 00:26:55;;;;;;;12.50;3.87;;;;;;;-2.22;80.20;98557.16;4500658;31;20087;-72
2021/12/04 00:29:23;;;;;;;7.95;3.40;;;;;;;-2.37;80.47;98555.22;4500709;31;20087;-72
2021/12/04 00:31:58;;;;;;;8.05;3.78;;;;;;;-2.29;80.25;98554.91;4500567;31;20107;-72
2021/12/04 00:34:27;;;;;;;7.55;3.65;;;;;;;-2.17;79.91;98544.97;4501010;31;20111;-72
2021/12/04 00:50:29;;;;;;;9.30;3.95;;;;;;;-3.21;86.63;98560.09;4500509;31;20445;-72
2021/12/04 00:52:56;;;;;;;12.57;3.80;;;;;;;-3.25;86.93;98559.38;4500379;31;20156;-72
2021/12/04 00:55:23;;;;;;;7.12;3.53;;;;;;;-3.29;87.83;98555.25;4500416;31;20100;-72
2021/12/04 00:57:51;;;;;;;12.68;4.25;;;;;;;-3.39;88.24;98553.94;4500529;31;20100;-72
2021/12/04 01:00:19;;;;;;;8.20;3.30;;;;;;;-3.44;88.62;98554.09;4500373;31;20167;-72
2021/12/04 01:02:46;;;;;;;7.97;3.50;;;;;;;-3.46;89.23;98553.31;4500242;31;20117;-72
2021/12/04 01:05:13;;;;;;;9.48;4.12;;;;;;;-3.37;88.86;98553.87;4500601;31;20157;-72
2021/12/04 01:07:41;;;;;;;16.33;6.40;;;;;;;-3.26;88.24;98559.44;4498893;31;20414;-72
2021/12/04 01:10:09;;;;;;;18.45;6.70;;;;;;;-3.26;87.72;98559.44;4500212;31;20089;-72
2021/12/04 01:12:36;;;;;;;12.32;5.30;;;;;;;-3.49;89.23;98550.88;4500637;31;20134;-72
2021/12/04 01:15:05;;;;;;;20.30;8.20;;;;;;;-3.51;89.30;98550.09;4501891;31;20134;-72
2021/12/04 01:17:32;;;;;;;11.85;4.53;;;;;;;-3.42;88.72;98549.75;4501802;31;20092;-72
2021/12/04 01:19:59;;;;;;;7.87;3.50;;;;;;;-3.31;87.91;98558.78;4502102;31;20149;-72
2021/12/04 01:22:27;;;;;;;9.23;4.55;;;;;;;-2.84;85.99;98553.63;4501790;31;20100;-72
2021/12/04 01:24:54;;;;;;;8.05;3.28;;;;;;;-2.68;84.41;98543.59;4502063;31;20473;-72
2021/12/04 01:27:23;;;;;;;10.77;3.62;;;;;;;-2.78;84.54;98547.44;4501742;31;20156;-72
2021/12/04 01:29:51;;;;;;;9.85;3.40;;;;;;;-2.98;85.38;98543.03;4501976;31;20124;-72
2021/12/04 01:32:18;;;;;;;7.68;3.17;;;;;;;-3.19;86.56;98542.97;4500339;31;20092;-72
2021/12/04 01:34:45;;;;;;;6.62;3.12;;;;;;;-3.43;86.92;98539.56;4501908;31;20381;-72
2021/12/04 01:37:13;;;;;;;6.20;2.95;;;;;;;-3.54;87.80;98545.09;4500510;31;20112;-72
2021/12/04 01:39:40;;;;;;;7.03;3.67;;;;;;;-3.68;88.20;98539.59;4501640;31;20119;-72
2021/12/04 01:42:07;;;;;;;7.72;3.87;;;;;;;-3.81;89.68;98544.31;4501871;31;20080;-72
2021/12/04 01:44:34;;;;;;;10.63;5.00;;;;;;;-3.76;89.60;98538.13;4502050;31;20123;-72
2021/12/04 01:47:13;;;;;;;13.45;5.47;;;;;;;-3.71;89.72;98537.16;4501768;31;20092;-72
2021/12/04 01:49:41;;;;;;;10.38;3.78;;;;;;;-3.61;89.63;98539.31;4501812;31;20111;-72
2021/12/04 01:52:08;;;;;;;9.48;4.20;;;;;;;-3.53;89.51;98539.06;4501820;31;20114;-72
2021/12/04 01:54:36;;;;;;;8.70;3.03;;;;;;;-3.45;89.29;98538.78;4502098;31;20092;-72
2021/12/04 01:57:04;;;;;;;7.00;3.50;;;;;;;-3.59;89.24;98536.72;4501824;31;20465;-72
2021/12/04 01:59:31;;;;;;;7.68;3.83;;;;;;;-3.64;89.45;98526.62;4501588;31;20122;-72
2021/12/04 02:01:58;;;;;;;8.60;3.83;;;;;;;-3.69;89.18;98525.13;4501764;31;20088;-72
2021/12/04 02:04:26;;;;;;;9.52;3.70;;;;;;;-3.75;89.66;98523.63;4501603;31;20115;-72
2021/12/04 02:06:53;;;;;;;8.48;3.15;;;;;;;-3.81;89.73;98529.78;4501785;31;20092;-72
2021/12/04 02:09:20;;;;;;;8.38;3.35;;;;;;;-3.89;90.16;98524.13;4501795;31;20131;-72
2021/12/04 02:11:47;;;;;;;11.05;3.80;;;;;;;-3.87;90.28;98517.22;4487354;31;20096;-72
2021/12/04 02:14:15;;;;;;;9.50;3.62;;;;;;;-3.96;90.19;98520.09;4501905;31;20523;-72
2021/12/04 02:16:42;;;;;;;9.52;3.47;;;;;;;-3.99;90.28;98513.34;4501750;31;20164;-72
2021/12/04 02:19:09;;;;;;;8.32;3.60;;;;;;;-3.96;90.08;98510.69;4501652;31;20088;-72
2021/12/04 02:21:36;;;;;;;8.35;3.60;;;;;;;-4.03;91.11;98510.94;4501768;31;20087;-72
2021/12/04 02:24:04;;;;;;;8.27;3.70;;;;;;;-3.96;90.80;98512.41;4500901;31;20110;-72
2021/12/04 02:26:31;;;;;;;8.55;3.35;;;;;;;-4.11;91.28;98508.66;4501646;31;20096;-72
2021/12/04 02:28:58;;;;;;;8.63;3.67;;;;;;;-4.24;91.56;98500.53;4501535;31;20104;-72
2021/12/04 02:31:26;;;;;;;9.18;3.47;;;;;;;-4.26;91.76;98497.22;4501546;31;20119;-72
2021/12/04 02:33:54;;;;;;;7.55;3.45;;;;;;;-4.37;93.01;98504.41;4501629;31;20111;-72
2021/12/04 02:36:22;;;;;;;7.35;3.55;;;;;;;-4.40;93.15;98496.84;4501641;31;20100;-72
2021/12/04 02:38:51;;;;;;;7.62;3.40;;;;;;;-4.43;93.33;98496.94;4501324;31;20469;-72
2021/12/04 02:41:20;;;;;;;8.52;3.92;;;;;;;-4.41;94.21;98500.28;4501333;31;20148;-72
2021/12/04 02:43:47;;;;;;;8.05;3.97;;;;;;;-4.28;94.12;98501.56;4501139;31;20425;-72
2021/12/04 02:46:15;;;;;;;8.55;3.85;;;;;;;-4.10;93.87;98493.25;4501542;31;20122;-72
2021/12/04 02:48:45;;;;;;;9.90;3.72;;;;;;;-3.82;93.06;98488.91;4501086;31;20104;-72
2021/12/04 02:51:15;;;;;;;8.73;3.62;;;;;;;-3.45;91.11;98485.84;4501413;31;20088;-72
2021/12/04 02:53:42;;;;;;;7.70;4.00;;;;;;;-3.54;90.62;98493.88;4501414;31;20091;-72
2021/12/04 02:56:11;;;;;;;8.48;3.55;;;;;;;-3.61;90.95;98484.72;4501412;31;20157;-72
2021/12/04 02:58:39;;;;;;;6.82;3.85;;;;;;;-3.63;91.07;98492.47;4501201;31;20111;-72
2021/12/04 03:01:06;;;;;;;7.50;3.50;;;;;;;-3.70;91.00;98482.50;4501252;31;20153;-72
2021/12/04 03:03:34;;;;;;;6.37;3.72;;;;;;;-3.80;91.31;98485.41;4501567;31;20151;-72
2021/12/04 03:06:01;;;;;;;9.27;3.80;;;;;;;-3.80;91.41;98480.28;4501246;31;20122;-72
2021/12/04 03:08:28;;;;;;;6.75;3.35;;;;;;;-3.85;91.33;98477.03;4501217;31;20096;-72
2021/12/04 03:10:56;;;;;;;9.75;3.70;;;;;;;-3.90;91.29;98489.16;4501162;31;20159;-72
2021/12/04 03:13:23;;;;;;;7.35;3.60;;;;;;;-3.99;91.46;98490.31;4501194;31;20130;-72
2021/12/04 03:15:58;;;;;;;7.70;3.97;;;;;;;-3.93;91.18;98490.09;4501059;31;20167;-72
2021/12/04 03:18:28;;;;;;;7.47;3.67;;;;;;;-3.88;90.47;98491.66;4501140;31;20397;-72
2021/12/04 03:20:58;;;;;;;7.97;3.85;;;;;;;-4.02;90.63;98492.97;4501047;31;20540;-72
2021/12/04 03:23:30;;;;;;;7.57;4.15;;;;;;;-4.12;90.95;98484.81;4500991;31;20091;-72
2021/12/04 03:25:59;;;;;;;10.45;4.55;;;;;;;-4.17;91.40;98491.78;4500998;31;20143;-72
2021/12/04 03:28:27;;;;;;;9.13;4.32;;;;;;;-4.20;91.44;98494.44;4501050;31;20114;-72
2021/12/04 03:31:09;;;;;;;11.30;4.65;;;;;;;-4.28;91.58;98483.66;4501384;31;20506;-72
2021/12/04 03:41:55;;;;;;;9.38;4.07;;;;;;;-4.57;92.67;98456.47;4501173;31;20083;-72
2021/12/04 03:44:22;;;;;;;9.75;3.92;;;;;;;-4.64;92.92;98435.41;4500927;31;20261;-72
2021/12/04 03:46:50;;;;;;;13.30;5.22;;;;;;;-4.71;92.84;98434.78;4501221;31;20116;-72
2021/12/04 03:49:17;;;;;;;10.38;3.83;;;;;;;-4.75;93.01;98434.91;4500765;31;20088;-72
2021/12/04 03:51:44;;;;;;;10.95;4.50;;;;;;;-4.83;93.30;98436.00;4500783;31;20084;-72
2021/12/04 03:54:12;;;;;;;8.45;4.30;;;;;;;-4.65;92.90;98431.16;4500962;31;20092;-72
2021/12/04 03:56:39;;;;;;;8.50;4.62;;;;;;;-4.56;91.31;98420.63;4500828;31;20088;-72
2021/12/04 03:59:06;;;;;;;12.20;4.95;;;;;;;-4.62;91.83;98412.34;4500701;31;20130;-72
2021/12/04 04:01:33;;;;;;;9.00;3.62;;;;;;;-4.82;93.09;98422.31;4499600;31;20122;-72
2021/12/04 04:04:01;;;;;;;9.75;4.15;;;;;;;-4.95;93.50;98426.19;4500797;31;20619;-72
2021/12/04 04:06:28;;;;;;;10.43;4.30;;;;;;;-5.06;93.72;98421.41;4500942;31;20120;-72
2021/12/04 04:08:55;;;;;;;10.60;4.75;;;;;;;-4.87;93.62;98418.28;4500738;31;20539;-72
2021/12/04 04:11:22;;;;;;;7.07;4.25;;;;;;;-4.74;92.59;98414.44;4500957;31;20107;-72
2021/12/04 04:13:49;;;;;;;9.57;4.70;;;;;;;-4.87;92.79;98419.09;4500689;31;20119;-72
2021/12/04 04:16:17;;;;;;;10.07;4.80;;;;;;;-4.90;93.13;98419.19;4500828;31;20091;-72
2021/12/04 04:18:44;;;;;;;12.02;5.25;;;;;;;-4.78;93.09;98412.88;4500767;31;20131;-72
2021/12/04 04:21:11;;;;;;;10.48;4.87;;;;;;;-4.75;92.73;98404.25;4500717;31;20477;-72
2021/12/04 04:23:38;;;;;;;11.93;4.80;;;;;;;-4.77;92.71;98400.91;4500587;31;20500;-72
2021/12/04 04:26:06;;;;;;;8.38;4.25;;;;;;;-4.74;92.63;98408.47;4500725;31;20100;-72
2021/12/04 04:28:33;;;;;;;8.23;4.03;;;;;;;-4.87;92.71;98419.09;4500709;31;20096;-73
2021/12/04 04:31:00;;;;;;;13.10;4.85;;;;;;;-4.95;93.36;98412.56;4500481;31;20118;-72
2021/12/04 04:33:30;;;;;;;15.85;4.72;;;;;;;-4.74;93.34;98408.47;4500876;31;20567;-72
2021/12/04 04:36:09;;;;;;;15.48;5.62;;;;;;;-4.73;93.42;98410.16;4500464;31;20442;-72
2021/12/04 05:12:28;;;;;;;12.55;6.40;;;;;;;-5.10;96.17;98417.28;4419711;32;20239;-72
2021/12/04 05:14:57;;;;;;;19.23;7.43;;;;;;;-5.13;96.40;98416.53;4419767;32;20670;-72
2021/12/04 05:20:14;;;;;;;25.20;7.78;;;;;;;-5.20;96.38;98409.06;4419667;32;20102;-72
2021/12/04 05:22:41;;;;;;;18.33;6.07;;;;;;;-5.24;96.59;98406.66;4419614;32;20113;-72
2021/12/04 05:25:09;;;;;;;12.48;5.28;;;;;;;-5.28;96.91;98405.06;4419465;32;20117;-72
2021/12/04 05:27:36;;;;;;;17.37;6.60;;;;;;;-5.29;97.17;98404.25;4419557;32;20611;-72
2021/12/04 05:30:05;;;;;;;11.40;4.93;;;;;;;-5.28;96.78;98403.38;4419542;32;20138;-72
2021/12/04 05:32:32;;;;;;;12.95;4.60;;;;;;;-5.12;95.64;98405.44;4419748;32;20094;-72
2021/12/04 05:34:59;;;;;;;10.75;4.53;;;;;;;-5.13;95.88;98401.22;4419782;32;20090;-72
2021/12/04 05:37:27;;;;;;;12.50;5.18;;;;;;;-5.26;96.38;98399.03;4430876;32;20101;-72
2021/12/04 05:39:54;;;;;;;9.57;4.55;;;;;;;-5.26;96.39;98405.88;4449978;32;20109;-72
2021/12/04 05:42:21;;;;;;;8.02;4.70;;;;;;;-5.18;96.06;98409.00;4450263;32;20147;-72
2021/12/04 05:44:48;;;;;;;9.50;4.40;;;;;;;-5.20;95.90;98401.41;4483754;31;20592;-72
2021/12/04 05:47:22;;;;;;;9.88;4.43;;;;;;;-5.30;96.29;98405.12;4482383;32;20085;-72
2021/12/04 05:49:58;;;;;;;8.32;4.90;;;;;;;-5.35;96.63;98392.50;4483725;31;20108;-72
2021/12/04 05:57:38;;;;;;;13.48;4.90;;;;;;;-5.46;97.02;98391.19;4483454;31;20119;-72
2021/12/04 06:00:07;;;;;;;11.60;4.47;;;;;;;-5.45;97.11;98401.34;4484681;31;20156;-72
2021/12/04 06:02:35;;;;;;;14.90;4.90;;;;;;;-5.41;96.58;98389.31;4486195;31;20096;-72
2021/12/04 06:05:02;;;;;;;7.18;4.12;;;;;;;-5.46;96.77;98391.19;4485918;31;20565;-72
2021/12/04 06:07:30;;;;;;;9.75;4.57;;;;;;;-5.55;96.66;98390.56;4486266;31;20182;-72
2021/12/04 06:09:57;;;;;;;9.18;4.30;;;;;;;-5.56;96.57;98386.31;4485820;31;20578;-72
2021/12/04 06:12:24;;;;;;;12.93;4.90;;;;;;;-5.45;96.38;98375.81;4485771;31;20077;-72
2021/12/04 06:14:51;;;;;;;9.95;5.18;;;;;;;-5.55;96.42;98382.06;4485872;31;20084;-72
2021/12/04 06:17:20;;;;;;;8.77;4.70;;;;;;;-5.65;96.90;98383.22;4485630;31;20804;-72
2021/12/04 06:22:42;;;;;;;9.43;4.37;;;;;;;-5.43;97.83;98381.69;4494646;31;20159;-72
2021/12/04 06:25:15;;;;;;;14.60;5.65;;;;;;;-5.27;96.08;98379.53;4501687;31;20453;-72
2021/12/04 06:27:43;;;;;;;12.53;5.80;;;;;;;-5.28;96.45;98377.84;4501483;31;20488;-72
2021/12/04 06:30:13;;;;;;;19.48;7.15;;;;;;;-5.41;96.70;98392.69;4501505;31;20464;-72
2021/12/04 06:32:41;;;;;;;13.90;6.30;;;;;;;-5.41;97.04;98389.31;4501450;31;20114;-72
2021/12/04 06:35:10;;;;;;;15.68;6.32;;;;;;;-5.24;96.70;98379.44;4501568;31;20155;-72
2021/12/04 06:37:37;;;;;;;11.40;5.57;;;;;;;-5.18;97.04;98389.44;4501398;31;20100;-72
2021/12/04 06:40:06;;;;;;;15.52;5.43;;;;;;;-5.20;96.35;98386.09;4496252;31;159871;-72
2021/12/04 06:42:34;;;;;;;12.25;5.43;;;;;;;-5.33;95.88;98374.56;4501405;31;20092;-72
2021/12/04 06:45:01;;;;;;;12.48;5.60;;;;;;;-5.28;96.68;98367.63;4501572;31;20110;-72
2021/12/04 06:47:30;;;;;;;15.38;5.62;;;;;;;-5.20;96.64;98365.66;4501567;31;20113;-72
2021/12/04 06:50:04;;;;;;;15.65;6.70;;;;;;;-5.22;97.07;98375.09;4501438;31;20118;-72
2021/12/04 06:52:32;;;;;;;14.45;5.75;;;;;;;-5.13;97.13;98373.12;4501285;31;20144;-72
2021/12/04 06:55:02;;;;;;;16.55;6.12;;;;;;;-4.92;96.88;98371.59;4501323;31;20096;-72
2021/12/04 06:57:32;;;;;;;19.08;7.85;;;;;;;-4.68;96.12;98369.94;4501103;31;20147;-72
2021/12/04 06:59:59;;;;;;;28.33;8.70;;;;;;;-4.70;95.98;98366.59;4501282;31;20092;-72
2021/12/04 07:02:26;;;;;;;26.90;8.30;;;;;;;-4.55;96.47;98372.91;4501051;31;20386;-72
2021/12/04 07:04:53;;;;;;;18.60;8.98;;;;;;;-4.40;96.30;98371.56;4501624;31;20096;-72
2021/12/04 07:07:21;;;;;;;29.60;11.55;;;;;;;-4.36;96.71;98362.87;4501184;31;20160;-72
2021/12/04 07:09:48;;;;;;;28.02;11.23;;;;;;;-4.21;97.07;98358.94;4500953;31;20115;-72
2021/12/04 07:12:15;;;;;;;27.60;11.77;;;;;;;-4.04;97.27;98353.22;4501233;31;20104;-72
2021/12/04 07:14:42;;;;;;;21.95;10.60;;;;;;;-3.84;97.02;98358.44;4501184;31;20160;-72
2021/12/04 07:17:10;;;;;;;25.37;10.02;;;;;;;-3.58;96.52;98354.06;4501022;31;20096;-72
2021/12/04 07:19:37;;;;;;;21.48;10.20;;;;;;;-3.31;95.39;98356.44;4500987;31;20163;-72
2021/12/04 07:22:07;;;;;;;25.15;10.10;;;;;;;-3.17;94.64;98355.88;4500832;31;20163;-72
2021/12/04 07:24:34;;;;;;;25.12;11.00;;;;;;;-2.98;94.56;98353.41;4501072;31;20092;-72
2021/12/04 07:27:02;;;;;;;20.77;9.95;;;;;;;-2.80;94.43;98347.53;4501090;31;20453;-72
2021/12/04 07:29:29;;;;;;;24.37;10.80;;;;;;;-2.62;93.83;98338.25;4500811;31;20149;-72
2021/12/04 07:31:56;;;;;;;22.73;10.35;;;;;;;-2.41;93.74;98330.50;4501321;31;20138;-72
2021/12/04 07:34:24;;;;;;;24.42;9.63;;;;;;;-2.24;93.41;98330.59;4501146;31;20386;-72
2021/12/04 07:36:52;;;;;;;23.05;9.90;;;;;;;-2.04;92.95;98322.00;4501126;31;20104;-72
2021/12/04 07:39:19;;;;;;;28.67;10.88;;;;;;;-1.86;92.82;98319.50;4501304;31;20115;-72
2021/12/04 07:41:46;;;;;;;24.12;10.43;;;;;;;-1.70;92.61;98322.19;4500920;31;20084;-72
2021/12/04 07:44:14;;;;;;;23.92;9.95;;;;;;;-1.62;92.41;98320.94;4500964;31;20449;-72
2021/12/04 07:46:41;;;;;;;20.37;9.48;;;;;;;-1.41;91.94;98305.41;4500987;31;20118;-72
2021/12/04 07:49:09;;;;;;;32.13;12.93;;;;;;;-1.31;91.46;98309.19;4500805;31;20134;-72
2021/12/04 07:51:36;;;;;;;25.88;12.45;;;;;;;-1.14;91.48;98310.13;4500922;31;20156;-72
2021/12/04 07:54:04;;;;;;;26.25;12.18;;;;;;;-1.01;90.67;98307.78;4500850;31;20089;-72
2021/12/04 07:56:31;;;;;;;29.20;10.85;;;;;;;-0.94;90.36;98304.84;4501003;31;20092;-72
2021/12/04 07:58:59;;;;;;;22.37;10.45;;;;;;;-0.86;89.99;98304.44;4501137;31;20088;-72
2021/12/04 08:01:27;;;;;;;23.50;10.27;;;;;;;-0.79;90.22;98304.97;4500747;31;20445;-72
2021/12/04 08:03:54;;;;;;;27.90;12.05;;;;;;;-0.67;89.85;98314.63;4501019;31;20119;-73
2021/12/04 08:06:22;;;;;;;22.17;10.60;;;;;;;-0.47;89.62;98315.34;4500935;31;20096;-72
2021/12/04 08:08:52;;;;;;;24.95;11.07;;;;;;;-0.37;88.79;98311.41;4500778;31;20104;-72
2021/12/04 08:11:20;;;;;;;24.45;10.27;;;;;;;-0.30;88.11;98311.88;4500987;31;20143;-72
2021/12/04 08:13:48;;;;;;;23.17;11.20;;;;;;;-0.09;87.80;98304.78;4500699;31;20119;-72
2021/12/04 08:16:15;;;;;;;27.45;10.25;;;;;;;-0.03;87.17;98317.31;4500898;31;20134;-72
2021/12/04 08:18:42;;;;;;;27.65;12.48;;;;;;;0.08;87.32;98307.31;4500636;31;20351;-72
2021/12/04 08:21:10;;;;;;;34.83;14.05;;;;;;;0.27;85.58;98316.59;4500617;31;20429;-72
2021/12/04 08:23:37;;;;;;;30.77;14.93;;;;;;;0.26;85.07;98312.34;4484081;31;20567;-72
2021/12/04 08:26:04;;;;;;;31.95;13.18;;;;;;;0.31;85.49;98313.78;4484844;31;20492;-72
2021/12/04 08:28:31;;;;;;;26.58;12.37;;;;;;;0.33;86.31;98316.25;4491025;31;20450;-72
2021/12/04 08:30:58;;;;;;;26.65;10.70;;;;;;;0.17;87.44;98313.72;4500558;31;20096;-72
2021/12/04 08:33:26;;;;;;;40.15;13.85;;;;;;;0.46;85.86;98317.25;4500819;31;20109;-72
2021/12/04 08:35:53;;;;;;;23.27;11.68;;;;;;;0.49;85.49;98311.09;4500660;31;20115;-72
2021/12/04 08:38:21;;;;;;;27.73;12.15;;;;;;;0.68;85.60;98318.63;4500614;31;20108;-72
2021/12/04 08:40:49;;;;;;;29.27;11.77;;;;;;;0.94;84.70;98311.16;4500350;31;20096;-72
2021/12/04 08:43:16;;;;;;;28.77;11.98;;;;;;;1.11;82.35;98310.22;4500444;31;20114;-72
2021/12/04 08:45:43;;;;;;;23.45;11.12;;;;;;;1.10;82.37;98303.38;4500751;31;20190;-72
2021/12/04 08:48:12;;;;;;;24.12;11.68;;;;;;;0.85;83.26;98302.22;4500208;31;20100;-73
2021/12/04 08:50:40;;;;;;;21.37;11.00;;;;;;;0.74;83.88;98310.53;4500688;31;20517;-72
2021/12/04 08:53:08;;;;;;;21.52;10.27;;;;;;;0.47;85.45;98303.47;4500183;31;20104;-72
2021/12/04 08:55:37;;;;;;;27.27;10.88;;;;;;;0.67;85.02;98307.50;4500468;31;20122;-72
2021/12/04 08:58:07;;;;;;;22.77;10.52;;;;;;;0.98;83.48;98307.50;4500126;31;20088;-72
2021/12/04 09:00:40;;;;;;;27.17;12.37;;;;;;;0.91;83.02;98303.59;4500214;31;20393;-72
2021/12/04 09:03:08;;;;;;;27.95;11.95;;;;;;;0.87;84.16;98290.88;4500244;31;20123;-72
2021/12/04 09:05:37;;;;;;;27.10;12.18;;;;;;;1.06;83.46;98297.59;4500260;31;20092;-72
2021/12/04 09:08:06;;;;;;;20.02;9.15;;;;;;;1.22;82.20;98290.59;4500151;31;20095;-72
2021/12/04 09:10:34;;;;;;;22.50;10.65;;;;;;;1.20;81.08;98294.19;4500455;31;20126;-72
2021/12/04 09:13:02;;;;;;;28.80;12.85;;;;;;;1.10;81.83;98286.16;4500220;31;20095;-72
2021/12/04 09:15:35;;;;;;;22.15;11.43;;;;;;;0.94;83.26;98287.94;4500429;31;20130;-72
2021/12/04 09:18:03;;;;;;;22.45;10.35;;;;;;;0.92;83.29;98289.81;4499854;31;20741;-72
2021/12/04 09:20:31;;;;;;;22.50;10.95;;;;;;;1.14;81.95;98287.63;4500246;31;20099;-72
2021/12/04 09:23:00;;;;;;;25.50;11.38;;;;;;;1.39;81.02;98286.19;4499701;31;20160;-72
2021/12/04 09:25:30;;;;;;;22.85;11.98;;;;;;;1.41;80.53;98264.53;4500118;31;20100;-72
2021/12/04 09:28:10;;;;;;;25.42;12.20;;;;;;;1.53;79.73;98267.28;4499582;31;20092;-72
2021/12/04 10:19:31;;;;;;;33.10;13.48;;;;;;;0.98;79.84;98170.81;4467642;32;20121;-72
2021/12/04 10:22:32;;;;;;;31.05;13.55;;;;;;;1.04;79.08;98178.19;4467503;32;20127;-72
2021/12/04 10:33:18;;;;;;;36.80;13.90;;;;;;;1.17;77.99;98167.97;4467649;32;20524;-72
2021/12/04 10:35:47;;;;;;;31.80;13.65;;;;;;;1.16;77.23;98156.78;4467584;32;20159;-72
2021/12/04 10:38:23;;;;;;;38.75;14.43;;;;;;;1.08;76.66;98156.44;4467716;32;20108;-72
2021/12/04 10:40:53;;;;;;;29.45;13.13;;;;;;;1.10;76.97;98146.84;4467559;32;20170;-72
2021/12/04 10:43:25;;;;;;;30.92;14.40;;;;;;;1.18;74.83;98142.06;4467486;32;20126;-73
2021/12/04 10:45:56;;;;;;;33.33;13.50;;;;;;;1.41;75.62;98145.00;4467129;32;20139;-73
2021/12/04 10:48:28;;;;;;;37.15;15.27;;;;;;;1.68;74.07;98139.00;4467210;32;20474;-73
2021/12/04 10:53:34;;;;;;;30.30;14.95;;;;;;;1.44;73.49;98134.47;4501362;31;20138;-73
2021/12/04 11:01:49;;;;;;;28.67;12.55;;;;;;;1.64;72.81;98120.31;4501414;31;20095;-73
2021/12/04 11:43:15;;;;;;;24.40;10.80;;;;;;;1.57;69.06;98052.75;4467044;32;20093;-74
2021/12/04 11:46:02;;;;;;;23.15;10.38;;;;;;;1.54;69.35;98046.94;4454399;32;20113;-74
2021/12/04 11:48:31;;;;;;;23.77;9.77;;;;;;;1.29;68.52;98043.34;4466954;32;20100;-74
2021/12/04 11:51:00;;;;;;;20.88;10.68;;;;;;;1.45;70.35;98043.19;4470486;31;20177;-74
2021/12/04 11:53:30;;;;;;;24.73;10.48;;;;;;;1.42;70.48;98040.81;4500825;31;20481;-74
2021/12/04 11:55:58;;;;;;;17.35;9.45;;;;;;;1.28;69.80;98043.47;4500797;31;20088;-74
2021/12/04 11:58:27;;;;;;;20.88;8.63;;;;;;;1.15;69.13;98043.38;4500082;31;20083;-74
2021/12/04 12:01:00;;;;;;;21.98;8.63;;;;;;;0.83;69.52;98039.31;4499418;31;20084;-74
2021/12/04 12:03:36;;;;;;;22.37;8.68;;;;;;;0.51;71.28;98034.34;4500924;31;20123;-74
2021/12/04 12:06:10;;;;;;;21.10;8.95;;;;;;;0.51;72.23;98034.34;4500631;31;20577;-74
2021/12/04 12:08:41;;;;;;;20.30;9.10;;;;;;;0.55;71.88;98026.44;4500997;31;20170;-74
2021/12/04 12:11:12;;;;;;;18.05;8.57;;;;;;;0.44;72.16;98035.66;4500668;31;20453;-74
2021/12/04 12:13:41;;;;;;;17.77;9.55;;;;;;;0.40;73.17;98034.16;4500930;31;20088;-74
2021/12/04 12:16:22;;;;;;;17.67;8.55;;;;;;;0.38;72.76;98025.72;4500445;31;20437;-74
2021/12/04 12:18:55;;;;;;;22.58;9.95;;;;;;;0.48;73.70;98026.78;4500824;31;20167;-74
2021/12/04 12:21:31;;;;;;;17.42;9.20;;;;;;;0.70;72.98;98031.50;4500457;31;20088;-74
2021/12/04 12:27:58;;;;;;;23.95;10.00;;;;;;;0.78;nan;98018.13;4500810;31;20554;-74
2021/12/04 12:36:03;;;;;;;16.27;7.63;;;;;;;0.88;70.01;98026.13;4420516;32;20568;-74
2021/12/04 12:38:34;;;;;;;14.87;7.03;;;;;;;0.97;70.43;98014.41;4420570;32;20544;-74
2021/12/04 12:41:05;;;;;;;19.12;7.70;;;;;;;1.02;68.49;98004.66;4420127;32;20102;-74
2021/12/04 12:43:40;;;;;;;14.23;7.57;;;;;;;1.11;68.38;97998.91;4420188;32;20118;-74
2021/12/04 12:46:08;;;;;;;22.10;9.23;;;;;;;1.13;69.30;97996.22;4420269;32;20089;-74
2021/12/04 12:48:48;;;;;;;25.20;8.50;;;;;;;1.16;69.25;97988.28;4420233;32;20102;-74
2021/12/04 12:51:24;;;;;;;17.58;7.62;;;;;;;1.05;70.93;97991.56;4420236;32;20124;-74
2021/12/04 12:53:51;;;;;;;15.98;7.45;;;;;;;0.77;70.45;97990.69;4420314;32;20112;-74
2021/12/04 12:56:21;;;;;;;16.75;7.32;;;;;;;0.91;68.87;97991.59;4420098;32;20112;-74
2021/12/04 12:58:59;;;;;;;15.50;7.80;;;;;;;1.05;68.77;97987.22;4420021;32;20098;-74
2021/12/04 13:13:25;;;;;;;;;;;;;;;0.76;72.25;97983.03;4484730;31;20148;-74
2021/12/04 13:15:54;;;;;;;16.23;7.85;;;;;;;0.80;70.15;97985.38;4484467;31;19975;-74
2021/12/04 13:18:23;;;;;;;16.87;6.97;;;;;;;0.91;70.14;97986.41;4484400;31;20101;-74
2021/12/04 13:20:53;;;;;;;20.23;8.23;;;;;;;1.05;68.60;97988.97;4484323;31;20159;-74
2021/12/04 13:23:25;;;;;;;22.85;9.00;;;;;;;1.06;68.85;97978.56;4498268;31;20084;-74
2021/12/04 13:26:03;;;;;;;17.27;7.78;;;;;;;1.16;69.25;97976.22;4500026;31;20114;-74
2021/12/04 13:28:32;;;;;;;15.52;7.00;;;;;;;1.29;67.96;97978.00;4499956;31;20091;-74
2021/12/04 13:31:00;;;;;;;14.70;7.68;;;;;;;1.35;65.94;97982.81;4499946;31;20113;-74
2021/12/04 13:33:30;;;;;;;17.87;6.72;;;;;;;1.34;67.15;97978.56;4499940;31;20083;-74
2021/12/04 13:35:57;;;;;;;20.58;8.05;;;;;;;0.98;68.71;97967.88;4500061;31;20095;-74
2021/12/04 13:38:27;;;;;;;16.55;8.32;;;;;;;0.88;68.80;97972.81;4500040;31;20145;-74
2021/12/04 13:40:56;;;;;;;14.02;6.68;;;;;;;0.84;68.63;97961.03;4498386;31;20159;-74
2021/12/04 13:43:23;;;;;;;16.60;7.40;;;;;;;0.75;70.10;97960.78;4499776;31;20432;-74
2021/12/04 13:45:58;;;;;;;14.95;6.53;;;;;;;0.53;70.05;97962.94;4499647;31;20092;-74
2021/12/04 13:48:27;;;;;;;14.35;6.60;;;;;;;0.72;68.22;97960.97;4499580;31;20084;-74
2021/12/04 13:50:55;;;;;;;14.48;6.60;;;;;;;0.71;68.37;97944.66;4499520;31;20142;-74
2021/12/04 13:53:30;;;;;;;15.13;7.40;;;;;;;0.43;69.31;97954.09;4499939;31;20096;-74
2021/12/04 13:56:07;;;;;;;13.55;6.62;;;;;;;0.59;70.02;97940.28;4499690;31;20139;-74
2021/12/04 13:58:34;;;;;;;16.60;6.60;;;;;;;0.58;70.02;97939.47;4499765;31;20110;-73
2021/12/04 14:01:03;;;;;;;18.15;7.68;;;;;;;0.57;68.28;97929.25;4499370;31;20089;-74
2021/12/04 14:03:32;;;;;;;16.45;7.07;;;;;;;0.43;69.67;97902.56;4499381;31;20103;-73
2021/12/04 14:05:59;;;;;;;17.20;6.32;;;;;;;0.43;69.03;97894.03;4499346;31;20110;-73
2021/12/04 14:08:26;;;;;;;19.95;8.25;;;;;;;0.46;68.77;97893.84;4499368;31;20084;-74
2021/12/04 14:10:54;;;;;;;15.85;7.45;;;;;;;0.36;69.77;97883.25;4499468;31;20096;-73
2021/12/04 14:13:25;;;;;;;16.35;6.82;;;;;;;0.53;70.88;97877.91;4499500;31;20447;-74
2021/12/04 14:15:55;;;;;;;16.40;7.62;;;;;;;0.41;71.02;97883.81;4499288;31;20818;-74
2021/12/04 14:18:28;;;;;;;17.85;7.28;;;;;;;0.27;71.47;97881.25;4499331;31;20570;-73
2021/12/04 14:21:00;;;;;;;14.15;6.35;;;;;;;0.15;72.10;97881.09;4500318;31;20112;-74
2021/12/04 14:23:30;;;;;;;19.55;7.07;;;;;;;0.15;72.04;97881.09;4501564;31;20452;-73
2021/12/04 14:26:02;;;;;;;19.83;7.60;;;;;;;0.04;72.72;97875.75;4501587;31;20083;-74
2021/12/04 14:28:34;;;;;;;20.58;8.93;;;;;;;0.01;72.41;97888.81;4501489;31;20494;-74
2021/12/04 14:31:01;;;;;;;19.75;8.13;;;;;;;-0.10;73.16;97891.22;4501579;31;20205;-73
2021/12/04 14:33:28;;;;;;;20.67;8.73;;;;;;;-0.16;73.54;97889.03;4501448;31;20112;-73
2021/12/04 14:35:57;;;;;;;21.48;7.90;;;;;;;-0.22;73.96;97888.44;4501580;31;20104;-74
2021/12/04 14:38:27;;;;;;;19.95;7.15;;;;;;;-0.20;74.09;97894.34;4501307;31;20088;-73
2021/12/04 14:41:07;;;;;;;22.20;8.73;;;;;;;-0.15;74.53;97894.06;4501364;31;20127;-73
2021/12/04 14:43:37;;;;;;;21.73;9.07;;;;;;;-0.22;74.94;97892.78;4501319;31;20092;-74
2021/12/04 14:46:09;;;;;;;23.08;9.23;;;;;;;-0.21;75.55;97884.97;4501595;31;20088;-73
2021/12/04 14:48:44;;;;;;;25.60;9.15;;;;;;;-0.34;75.93;97872.91;4501023;31;20122;-73
2021/12/04 14:51:15;;;;;;;25.98;11.60;;;;;;;-0.33;76.29;97879.69;4501491;31;20118;-73